Dawson Creek Airport
CYDQ : rendu visible

Aérodrome :











RETROUVEZ-NOUS SUR...

 
LOGIN :

S'inscrire | Disclaimer

   EN    FR    IT 

 









Légende :    VFR   VFR Marginal   IFR   IFR Intensif   IFR Très Intensif
Visi : 
Plafond : 
>= 8 km
>= 3000ft
5 à 8 km
1000 à 3000 ft
1500m à 5 km
500 à 1000 ft
800 à 1500m
200 à 500 ft
< 800m
< 200 ft
Symboles :   Orages  Brouillard  Fortes neiges  Fortes précipitations  Vent > 20 kt






- Altitude de l'aérodrome : 2148 ft
- Code IATA : YDQ


CYDQ - Dawson Creek

DERNIER METAR :
  • 251300Z AUTO 14007KT 050V150 9SM CLR 04/01 A2943 RMK SLP982

METARs EXPIRÉS :
  • 251200Z AUTO 16006KT 130V210 9SM CLR 05/01 A2943 RMK SLP983
  • 251100Z AUTO 14006KT 9SM CLR 08/02 A2945 RMK SLP984 DENSITY ALT 2300FT

TAF TAF CYDQ
Valide du 25 à 13h jusqu'au 26 à 01h UTC


251238Z 2513/2601 16006KT P6SM SKC
FM251700 16006KT P6SM BKN040
TEMPO 2517/2520 P6SM -RA
FM252000 19010KT P6SM -RA OVC040
TEMPO 2520/2601 5SM -RA BR OVC020 RMK FCST BASED ON AUTO OBS. NXT FCST BY 251900Z
FIR CZEG / Amérique du Nord



MET'MAP, la Météo Aéronautique d'un coup d'oeil ! - Copyright ORBIFLY Décembre 2007 - Disclaimer

ORBIFLY MET'MAP TEAM :

Programmation & Développement : Alexandra Zaïnal
Sur une idée originale de : Baudouin d'Aumeries
Assistance à la programmation : Marc-Olivier Méhu
Soutien technique & logistique : Manuel Goepfert

Contact : metmap@orbifly.com




SOURCES & CREDITS :

   NOAA       Earth
Advisory